Time;durP1;ratioP1;P1;durP2;ratioP2;P2;SDS_P1;SDS_P2;PMS_P1;PMS_P2;Temp;Humidity;BMP_temperature;BMP_pressure;BME280_temperature;BME280_humidity;BME280_pressure;Samples;Min_cycle;Max_cycle;Signal;HPM_P1;HPM_P2
2021/07/30 00:02:21;;;;;;;11.95;4.60;;;13.40;99.90;;;;;;5082493;28;20454;-70
2021/07/30 00:04:47;;;;;;;14.88;5.40;;;13.40;99.90;;;;;;5071576;28;20043;-70
2021/07/30 00:07:12;;;;;;;8.13;4.80;;;13.40;99.90;;;;;;5072128;28;20065;-70
2021/07/30 00:09:38;;;;;;;13.50;5.05;;;13.40;99.90;;;;;;5090116;28;20482;-70
2021/07/30 00:12:05;;;;;;;8.95;5.03;;;13.30;99.90;;;;;;5089620;28;20074;-70
2021/07/30 00:14:32;;;;;;;8.82;4.80;;;13.30;99.90;;;;;;5090572;28;20043;-70
2021/07/30 00:16:57;;;;;;;11.07;5.18;;;13.30;99.90;;;;;;5086357;28;20070;-70
2021/07/30 00:19:23;;;;;;;13.82;5.50;;;13.30;99.90;;;;;;5071229;28;20382;-70
2021/07/30 00:21:49;;;;;;;8.50;5.07;;;13.30;99.90;;;;;;5090416;28;20032;-70
2021/07/30 00:24:15;;;;;;;10.80;5.20;;;13.30;99.90;;;;;;5089353;28;20032;-70
2021/07/30 00:26:40;;;;;;;12.57;5.22;;;13.30;99.90;;;;;;5088655;28;20516;-70
2021/07/30 00:29:06;;;;;;;7.65;4.93;;;13.20;99.90;;;;;;5089871;28;20477;-70
2021/07/30 00:31:32;;;;;;;9.73;5.80;;;13.30;99.90;;;;;;5087956;28;20437;-70
2021/07/30 00:33:57;;;;;;;10.40;5.22;;;13.20;99.90;;;;;;5079297;28;20039;-71
2021/07/30 00:36:23;;;;;;;10.75;5.60;;;13.20;99.90;;;;;;5088692;28;20036;-70
2021/07/30 00:38:49;;;;;;;11.48;5.70;;;13.20;99.90;;;;;;5072398;28;20046;-70
2021/07/30 00:41:15;;;;;;;7.68;4.70;;;13.20;99.90;;;;;;5088728;28;20044;-70
2021/07/30 00:43:41;;;;;;;10.27;6.00;;;13.10;99.90;;;;;;5089519;28;20047;-70
2021/07/30 00:46:06;;;;;;;9.80;5.28;;;13.10;99.90;;;;;;5072347;28;20188;-70
2021/07/30 00:48:33;;;;;;;9.63;6.07;;;13.10;99.90;;;;;;5106690;28;20070;-70
2021/07/30 00:50:59;;;;;;;7.05;5.68;;;13.10;99.90;;;;;;5098022;28;20040;-70
2021/07/30 00:53:26;;;;;;;11.07;5.75;;;13.00;99.90;;;;;;5097085;28;20040;-70
2021/07/30 00:55:53;;;;;;;13.95;6.63;;;13.00;99.90;;;;;;5093090;28;20075;-70
2021/07/30 00:58:20;;;;;;;9.90;5.97;;;13.00;99.90;;;;;;5091567;28;20036;-70
2021/07/30 01:00:45;;;;;;;10.45;6.50;;;13.10;99.90;;;;;;5093751;28;20118;-70
2021/07/30 01:03:11;;;;;;;8.30;6.15;;;13.10;99.90;;;;;;5090692;28;20123;-70
2021/07/30 01:05:37;;;;;;;11.75;7.00;;;13.00;99.90;;;;;;5091262;28;20048;-70
2021/07/30 01:08:04;;;;;;;12.88;6.25;;;13.00;99.90;;;;;;5104150;28;20027;-70
2021/07/30 01:10:30;;;;;;;8.75;6.13;;;13.00;99.90;;;;;;5098311;28;20032;-70
2021/07/30 01:12:56;;;;;;;8.95;6.85;;;13.00;99.90;;;;;;5092489;28;20032;-70
2021/07/30 01:15:22;;;;;;;12.38;6.40;;;13.00;99.90;;;;;;5090255;28;20032;-70
2021/07/30 01:17:48;;;;;;;12.07;7.72;;;12.90;99.90;;;;;;5072610;28;20059;-70
2021/07/30 01:20:15;;;;;;;11.13;7.35;;;12.90;99.90;;;;;;5104822;28;20042;-70
2021/07/30 01:22:58;;;;;;;9.45;6.63;;;12.90;99.90;;;;;;5100327;28;20067;-70
2021/07/30 01:25:27;;;;;;;10.43;6.78;;;12.90;99.90;;;;;;5107538;28;20416;-70
2021/07/30 01:27:54;;;;;;;11.85;7.07;;;12.90;99.90;;;;;;5091346;28;20641;-70
2021/07/30 01:30:21;;;;;;;12.15;7.45;;;12.90;99.90;;;;;;5089035;28;20040;-70
2021/07/30 01:32:47;;;;;;;10.68;7.10;;;12.90;99.90;;;;;;5090341;28;20052;-70
2021/07/30 01:35:13;;;;;;;11.77;6.90;;;12.90;99.90;;;;;;5102570;28;20036;-70
2021/07/30 01:37:39;;;;;;;10.27;6.97;;;12.90;99.90;;;;;;5101252;28;20044;-70
2021/07/30 01:40:06;;;;;;;12.60;7.45;;;12.90;99.90;;;;;;5096729;28;20043;-70
2021/07/30 01:42:32;;;;;;;13.10;8.27;;;12.80;99.90;;;;;;5104440;28;20036;-70
2021/07/30 01:44:58;;;;;;;11.23;7.18;;;12.90;99.90;;;;;;5100140;28;20035;-70
2021/07/30 01:47:24;;;;;;;12.55;8.27;;;12.90;99.90;;;;;;5077284;28;20055;-70
2021/07/30 01:49:51;;;;;;;14.20;7.70;;;12.90;99.90;;;;;;5107403;28;20035;-70
2021/07/30 01:52:17;;;;;;;15.00;8.10;;;12.80;99.90;;;;;;5100524;28;20047;-70
2021/07/30 01:54:44;;;;;;;13.30;7.35;;;12.80;99.90;;;;;;5076266;28;20093;-70
2021/07/30 01:57:10;;;;;;;11.77;7.80;;;12.80;99.90;;;;;;5094936;28;20115;-70
2021/07/30 01:59:37;;;;;;;10.40;7.68;;;12.80;99.90;;;;;;5100166;28;20039;-70
2021/07/30 02:02:03;;;;;;;12.65;7.47;;;12.80;99.90;;;;;;5101387;28;20035;-70
2021/07/30 02:04:28;;;;;;;11.05;7.88;;;12.80;99.90;;;;;;5093815;28;20412;-70
2021/07/30 02:06:54;;;;;;;11.88;7.90;;;12.90;99.90;;;;;;5093207;28;20104;-70
2021/07/30 02:09:19;;;;;;;15.07;8.18;;;12.80;99.90;;;;;;5100522;28;20036;-70
2021/07/30 02:11:53;;;;;;;13.73;8.50;;;12.80;99.90;;;;;;5106261;28;20094;-70
2021/07/30 02:14:25;;;;;;;13.30;8.30;;;12.70;99.90;;;;;;5091993;28;20050;-70
2021/07/30 02:16:53;;;;;;;15.98;8.52;;;12.80;99.90;;;;;;5100521;28;20059;-70
2021/07/30 02:19:21;;;;;;;12.32;8.27;;;12.80;99.90;;;;;;5075900;28;20032;-70
2021/07/30 02:21:52;;;;;;;12.75;8.80;;;12.70;99.90;;;;;;5099406;28;20110;-71
2021/07/30 02:24:18;;;;;;;9.75;7.45;;;12.80;99.90;;;;;;5092245;28;20059;-70
2021/07/30 02:26:45;;;;;;;13.45;8.20;;;12.70;99.90;;;;;;5096372;28;20052;-70
2021/07/30 02:29:11;;;;;;;11.65;8.73;;;12.70;99.90;;;;;;5094799;28;20034;-70
2021/07/30 02:31:38;;;;;;;12.05;8.95;;;12.70;99.90;;;;;;5100309;28;20036;-70
2021/07/30 02:34:07;;;;;;;16.70;9.23;;;12.70;99.90;;;;;;5108900;28;20031;-70
2021/07/30 02:36:34;;;;;;;13.95;8.75;;;12.70;99.90;;;;;;5092472;28;20043;-70
2021/07/30 02:39:00;;;;;;;14.18;8.18;;;12.70;99.90;;;;;;5093352;28;20042;-70
2021/07/30 02:41:25;;;;;;;13.90;8.65;;;12.70;99.90;;;;;;5108956;28;20115;-70
2021/07/30 02:43:51;;;;;;;12.57;8.35;;;12.60;99.90;;;;;;5092897;28;20039;-70
2021/07/30 02:46:17;;;;;;;12.10;8.40;;;12.60;99.90;;;;;;5077627;28;20044;-70
2021/07/30 02:48:46;;;;;;;12.57;9.35;;;12.60;99.90;;;;;;5087951;28;20032;-70
2021/07/30 02:51:13;;;;;;;14.85;7.82;;;12.60;99.90;;;;;;5078851;28;20041;-70
2021/07/30 02:53:39;;;;;;;14.40;9.15;;;12.60;99.90;;;;;;5078875;28;20067;-70
2021/07/30 02:56:05;;;;;;;16.70;8.90;;;12.60;99.90;;;;;;5076963;28;20048;-70
2021/07/30 02:58:31;;;;;;;14.65;8.43;;;12.60;99.90;;;;;;5082874;28;20072;-70
2021/07/30 03:00:58;;;;;;;14.75;8.60;;;12.50;99.90;;;;;;5086086;28;20149;-70
2021/07/30 03:03:23;;;;;;;16.30;8.82;;;12.50;99.90;;;;;;5069953;28;20130;-70
2021/07/30 03:05:50;;;;;;;13.02;9.10;;;12.50;99.90;;;;;;5067329;28;20446;-70
2021/07/30 03:08:15;;;;;;;16.90;9.23;;;12.60;99.90;;;;;;5088519;28;20040;-70
2021/07/30 03:10:49;;;;;;;14.88;9.77;;;12.50;99.90;;;;;;5076426;28;20037;-70
2021/07/30 03:13:15;;;;;;;12.75;8.50;;;12.50;99.90;;;;;;5073281;28;20042;-70
2021/07/30 03:15:40;;;;;;;16.55;10.25;;;12.60;99.90;;;;;;5085011;28;20729;-70
2021/07/30 03:18:06;;;;;;;15.65;8.88;;;12.60;99.90;;;;;;5089032;28;20477;-70
2021/07/30 03:20:31;;;;;;;11.63;9.63;;;12.60;99.90;;;;;;5083848;28;20043;-70
2021/07/30 03:22:57;;;;;;;16.95;9.73;;;12.60;99.90;;;;;;5092146;28;20126;-70
2021/07/30 03:25:23;;;;;;;17.85;8.77;;;12.60;99.90;;;;;;5084090;28;20039;-70
2021/07/30 03:27:49;;;;;;;15.93;9.52;;;12.60;99.90;;;;;;5084229;28;20710;-70
2021/07/30 03:30:16;;;;;;;13.98;9.75;;;12.60;99.90;;;;;;5080997;28;20044;-70
2021/07/30 03:32:42;;;;;;;18.55;9.80;;;12.50;99.90;;;;;;5086884;28;20040;-70
2021/07/30 03:35:08;;;;;;;18.25;9.90;;;12.50;99.90;;;;;;5084121;28;20032;-70
2021/07/30 03:37:34;;;;;;;14.30;10.30;;;12.50;99.90;;;;;;5088935;28;20047;-70
2021/07/30 03:39:59;;;;;;;18.05;9.82;;;12.50;99.90;;;;;;5081483;28;20040;-70
2021/07/30 03:42:25;;;;;;;15.27;10.18;;;12.50;99.90;;;;;;5078726;28;20473;-70
2021/07/30 03:44:51;;;;;;;16.73;10.35;;;12.50;99.90;;;;;;5076577;28;20040;-70
2021/07/30 03:47:18;;;;;;;15.27;10.23;;;12.50;99.90;;;;;;5085081;28;20052;-70
2021/07/30 03:49:44;;;;;;;14.40;10.77;;;12.40;99.90;;;;;;5090668;28;20404;-70
2021/07/30 03:52:09;;;;;;;14.88;10.27;;;12.40;99.90;;;;;;5086973;28;20126;-70
2021/07/30 03:54:35;;;;;;;16.75;10.93;;;12.40;99.90;;;;;;5076642;28;20036;-70
2021/07/30 03:57:00;;;;;;;16.13;10.15;;;12.40;99.90;;;;;;5077588;28;20083;-70
2021/07/30 03:59:26;;;;;;;13.15;9.45;;;12.40;99.90;;;;;;5072268;28;20474;-70
2021/07/30 04:01:52;;;;;;;14.88;10.25;;;12.40;99.90;;;;;;5074812;28;20039;-70
2021/07/30 04:04:17;;;;;;;16.65;10.68;;;12.40;99.90;;;;;;5075680;28;20123;-70
2021/07/30 04:06:44;;;;;;;15.05;9.82;;;12.40;99.90;;;;;;5086134;28;20060;-70
2021/07/30 04:09:14;;;;;;;13.63;9.38;;;12.40;99.90;;;;;;5080618;28;20033;-70
2021/07/30 04:11:41;;;;;;;13.63;10.45;;;12.50;99.90;;;;;;5083189;28;20040;-70
2021/07/30 04:14:07;;;;;;;21.02;10.90;;;12.50;99.90;;;;;;5070575;28;20040;-69
2021/07/30 04:16:34;;;;;;;15.70;10.68;;;12.50;99.90;;;;;;5072338;28;20089;-70
2021/07/30 04:19:01;;;;;;;14.65;9.70;;;12.50;99.90;;;;;;5083156;28;20040;-70
2021/07/30 04:21:27;;;;;;;18.65;10.63;;;12.60;99.90;;;;;;5071117;28;20111;-70
2021/07/30 04:23:53;;;;;;;20.23;10.57;;;12.60;99.90;;;;;;5084484;28;20111;-70
2021/07/30 04:26:19;;;;;;;16.15;10.32;;;12.60;99.90;;;;;;5082551;28;20124;-70
2021/07/30 04:28:50;;;;;;;15.93;9.88;;;12.70;99.90;;;;;;5075873;28;20040;-70
2021/07/30 04:31:16;;;;;;;17.80;10.18;;;12.70;99.90;;;;;;5076297;28;20384;-70
2021/07/30 04:33:42;;;;;;;16.55;10.38;;;12.80;99.90;;;;;;5081055;28;20044;-70
2021/07/30 04:36:16;;;;;;;18.00;11.18;;;12.80;99.90;;;;;;5082877;28;20036;-70
2021/07/30 04:38:43;;;;;;;14.35;9.32;;;12.90;99.90;;;;;;5071002;28;20037;-70
2021/07/30 04:41:09;;;;;;;14.50;10.18;;;12.90;99.90;;;;;;5079261;28;20060;-70
2021/07/30 04:43:35;;;;;;;16.50;9.48;;;12.90;99.90;;;;;;5073517;28;20585;-70
2021/07/30 04:46:01;;;;;;;15.02;10.80;;;12.90;99.90;;;;;;5076436;28;20060;-69
2021/07/30 04:48:26;;;;;;;18.75;10.57;;;13.00;99.90;;;;;;5090188;28;20539;-70
2021/07/30 04:50:53;;;;;;;16.20;10.45;;;13.00;99.90;;;;;;5087425;28;20040;-70
2021/07/30 04:53:18;;;;;;;14.82;10.05;;;13.10;99.90;;;;;;5074091;28;20047;-70
2021/07/30 04:55:44;;;;;;;11.25;8.95;;;13.10;99.90;;;;;;5089178;28;20044;-70
2021/07/30 04:58:10;;;;;;;12.23;9.82;;;13.20;99.90;;;;;;5087346;28;20123;-70
2021/07/30 05:00:35;;;;;;;12.43;9.48;;;13.20;99.90;;;;;;5083578;28;20055;-70
2021/07/30 05:03:02;;;;;;;13.27;8.90;;;13.20;99.90;;;;;;5079273;28;20067;-70
2021/07/30 05:05:28;;;;;;;15.10;9.55;;;13.20;99.90;;;;;;5082476;28;20384;-70
2021/07/30 05:07:54;;;;;;;14.80;9.48;;;13.30;99.90;;;;;;5088555;28;20047;-70
2021/07/30 05:10:20;;;;;;;14.50;9.18;;;13.30;99.90;;;;;;5088482;28;20028;-70
2021/07/30 05:12:46;;;;;;;18.10;9.68;;;13.40;99.90;;;;;;5090142;28;20040;-70
2021/07/30 05:15:12;;;;;;;14.88;9.18;;;13.50;99.90;;;;;;5086312;28;20043;-70
2021/07/30 05:17:40;;;;;;;15.05;8.60;;;13.50;99.90;;;;;;5083297;28;20040;-70
2021/07/30 05:20:08;;;;;;;13.98;8.75;;;13.60;99.90;;;;;;5072387;28;20165;-70
2021/07/30 05:22:34;;;;;;;16.73;8.68;;;13.70;99.90;;;;;;5076840;28;20039;-70
2021/07/30 05:24:59;;;;;;;12.68;8.77;;;13.80;99.90;;;;;;5094563;28;20401;-70
2021/07/30 05:27:25;;;;;;;16.10;8.70;;;13.90;99.90;;;;;;5094398;28;20051;-70
2021/07/30 05:29:51;;;;;;;13.77;8.20;;;14.00;99.90;;;;;;5094433;28;20478;-70
2021/07/30 05:32:17;;;;;;;11.65;8.63;;;14.10;99.90;;;;;;5093217;28;20040;-70
2021/07/30 05:34:42;;;;;;;12.60;8.48;;;14.20;99.90;;;;;;5094235;28;20040;-70
2021/07/30 05:37:08;;;;;;;12.82;8.07;;;14.30;99.90;;;;;;5074497;28;20047;-70
2021/07/30 05:39:34;;;;;;;15.40;8.80;;;14.40;99.90;;;;;;5094315;28;20470;-70
2021/07/30 05:42:01;;;;;;;12.57;8.18;;;14.50;99.90;;;;;;5083135;28;20042;-70
2021/07/30 05:44:30;;;;;;;12.90;8.68;;;14.60;99.90;;;;;;5093832;28;20371;-70
2021/07/30 05:46:55;;;;;;;14.65;8.57;;;14.80;99.90;;;;;;5092467;28;20047;-70
2021/07/30 05:49:21;;;;;;;13.60;8.43;;;14.90;99.90;;;;;;5082139;28;20153;-70
2021/07/30 05:51:46;;;;;;;16.88;8.25;;;15.10;99.90;;;;;;5101312;28;20037;-70
2021/07/30 05:54:12;;;;;;;12.77;8.02;;;15.20;99.90;;;;;;5091421;28;20036;-70
2021/07/30 05:56:38;;;;;;;14.05;7.85;;;15.40;99.90;;;;;;5109771;28;20040;-70
2021/07/30 05:59:03;;;;;;;13.13;7.55;;;15.60;99.90;;;;;;5104000;28;20473;-70
2021/07/30 06:01:29;;;;;;;14.52;7.70;;;16.40;99.90;;;;;;5101230;28;20024;-70
2021/07/30 06:03:56;;;;;;;11.18;7.28;;;17.80;99.90;;;;;;5098969;28;20476;-70
2021/07/30 06:06:21;;;;;;;11.38;7.10;;;19.20;99.90;;;;;;5103494;28;20035;-70
2021/07/30 06:08:47;;;;;;;13.82;7.32;;;20.50;99.90;;;;;;5109080;28;20035;-70
2021/07/30 06:11:13;;;;;;;11.55;6.43;;;21.20;99.70;;;;;;5099390;28;20044;-71
2021/07/30 06:13:38;;;;;;;8.77;6.47;;;21.90;98.70;;;;;;5097026;28;20040;-71
2021/07/30 06:16:08;;;;;;;9.85;6.55;;;22.10;98.20;;;;;;5099824;28;20042;-71
2021/07/30 06:18:34;;;;;;;12.73;6.55;;;22.10;96.60;;;;;;5096817;28;20481;-71
2021/07/30 06:20:59;;;;;;;10.90;6.00;;;22.00;96.40;;;;;;5097725;28;20039;-70
2021/07/30 06:23:25;;;;;;;9.88;6.47;;;21.80;96.70;;;;;;5088846;28;20044;-70
2021/07/30 06:25:52;;;;;;;8.80;5.70;;;21.60;96.10;;;;;;5110659;28;20065;-70
2021/07/30 06:28:18;;;;;;;11.13;6.30;;;21.60;96.70;;;;;;5103451;28;20043;-70
2021/07/30 06:30:44;;;;;;;9.73;6.00;;;21.70;96.00;;;;;;5099282;28;20437;-70
2021/07/30 06:33:10;;;;;;;9.88;5.97;;;21.90;96.70;;;;;;5097584;28;21652;-65
2021/07/30 06:35:37;;;;;;;7.75;5.40;;;22.00;95.40;;;;;;5092956;28;20365;-65
2021/07/30 06:38:02;;;;;;;15.93;5.60;;;22.20;95.70;;;;;;5084764;28;20043;-65
2021/07/30 06:40:28;;;;;;;9.05;5.85;;;22.40;95.30;;;;;;5103195;28;20573;-65
2021/07/30 06:42:53;;;;;;;9.55;5.05;;;22.30;93.90;;;;;;5097093;28;20107;-65
2021/07/30 06:45:19;;;;;;;11.10;6.15;;;22.70;94.60;;;;;;5105683;28;20381;-66
2021/07/30 06:47:45;;;;;;;15.02;5.80;;;22.90;92.80;;;;;;5077942;28;20603;-66
2021/07/30 06:50:11;;;;;;;9.57;5.78;;;23.20;94.10;;;;;;5097327;28;20040;-65
2021/07/30 06:52:36;;;;;;;7.75;5.50;;;23.60;92.80;;;;;;5105269;28;20036;-66
2021/07/30 06:55:03;;;;;;;10.73;6.00;;;24.00;92.90;;;;;;5093112;28;20073;-66
2021/07/30 06:57:29;;;;;;;9.55;5.95;;;24.30;91.40;;;;;;5092890;28;20347;-65
2021/07/30 06:59:54;;;;;;;11.90;5.40;;;24.40;91.00;;;;;;5108642;28;20046;-66
2021/07/30 07:02:20;;;;;;;10.23;5.85;;;24.70;90.00;;;;;;5111660;28;20071;-65
2021/07/30 07:04:45;;;;;;;8.55;5.80;;;24.80;90.40;;;;;;5105556;28;20035;-65
2021/07/30 07:07:11;;;;;;;11.23;5.65;;;25.10;88.90;;;;;;5103001;28;20439;-65
2021/07/30 07:09:37;;;;;;;9.40;5.63;;;25.60;87.30;;;;;;5111568;28;20106;-65
2021/07/30 07:12:03;;;;;;;9.10;5.25;;;26.00;85.10;;;;;;5106937;28;20031;-65
2021/07/30 07:14:29;;;;;;;9.65;5.20;;;26.50;85.60;;;;;;5098738;28;20071;-65
2021/07/30 07:16:55;;;;;;;12.18;5.72;;;26.50;82.20;;;;;;5097389;28;20040;-66
2021/07/30 07:19:21;;;;;;;10.65;5.20;;;26.70;81.50;;;;;;5106921;28;20038;-66
2021/07/30 07:21:46;;;;;;;8.18;4.68;;;26.70;80.40;;;;;;5099123;28;20059;-66
2021/07/30 07:24:12;;;;;;;9.77;5.70;;;26.60;79.90;;;;;;5094300;28;20412;-66
2021/07/30 07:26:39;;;;;;;10.02;5.57;;;26.50;81.00;;;;;;5102387;28;20400;-66
2021/07/30 07:29:05;;;;;;;7.93;4.82;;;26.50;81.20;;;;;;5098682;28;20044;-66
2021/07/30 07:31:32;;;;;;;12.65;5.40;;;26.20;79.30;;;;;;5095199;28;20042;-66
2021/07/30 07:33:58;;;;;;;11.35;5.82;;;25.90;81.30;;;;;;5106151;28;20609;-66
2021/07/30 07:36:23;;;;;;;9.00;5.28;;;25.10;82.10;;;;;;5107273;28;20045;-66
2021/07/30 07:38:49;;;;;;;9.25;5.43;;;25.00;83.20;;;;;;5104062;28;20426;-66
2021/07/30 07:41:15;;;;;;;13.77;6.30;;;25.10;85.10;;;;;;5105860;28;20489;-66
2021/07/30 07:43:41;;;;;;;10.98;5.10;;;25.20;83.20;;;;;;5100656;28;20059;-65
2021/07/30 07:46:06;;;;;;;9.50;5.07;;;25.40;83.40;;;;;;5104457;28;20042;-65
2021/07/30 07:48:32;;;;;;;8.52;5.50;;;25.40;83.80;;;;;;5072922;28;20032;-66
2021/07/30 07:50:58;;;;;;;8.15;4.53;;;25.20;84.40;;;;;;5091102;28;20108;-66
2021/07/30 07:53:23;;;;;;;11.63;5.10;;;25.10;84.60;;;;;;5089058;28;20040;-65
2021/07/30 07:56:00;;;;;;;9.98;5.13;;;25.10;84.10;;;;;;5082133;28;20035;-65
2021/07/30 07:58:25;;;;;;;8.65;4.82;;;24.90;85.40;;;;;;5088722;28;20087;-65
2021/07/30 08:00:51;;;;;;;9.55;5.22;;;24.60;85.30;;;;;;5090586;28;20469;-65
2021/07/30 08:03:16;;;;;;;11.10;5.22;;;24.60;85.30;;;;;;5088677;28;20044;-67
2021/07/30 08:05:42;;;;;;;11.93;5.07;;;24.40;85.20;;;;;;5090990;28;20473;-67
2021/07/30 08:08:08;;;;;;;7.85;5.10;;;24.10;86.00;;;;;;5083558;28;20034;-68
2021/07/30 08:10:33;;;;;;;12.13;5.60;;;23.70;87.90;;;;;;5070510;28;20055;-67
2021/07/30 08:12:59;;;;;;;9.35;4.68;;;23.40;89.40;;;;;;5090973;28;20040;-65
2021/07/30 08:15:25;;;;;;;9.27;5.05;;;23.20;90.00;;;;;;5091365;28;20062;-66
2021/07/30 08:17:51;;;;;;;10.32;5.25;;;23.00;90.90;;;;;;5076233;28;20462;-66
2021/07/30 08:20:17;;;;;;;8.95;4.82;;;22.80;92.10;;;;;;5071359;28;20043;-66
2021/07/30 08:22:44;;;;;;;10.15;4.50;;;22.90;92.40;;;;;;5070981;28;20063;-67
2021/07/30 08:25:11;;;;;;;11.73;5.20;;;22.90;92.50;;;;;;5080450;28;20067;-66
2021/07/30 08:27:37;;;;;;;10.88;5.35;;;22.80;91.70;;;;;;5087330;28;20373;-67
2021/07/30 08:30:03;;;;;;;9.35;4.63;;;22.70;92.10;;;;;;5089291;28;20036;-67
2021/07/30 08:32:29;;;;;;;8.40;5.00;;;22.70;92.50;;;;;;5090893;28;20436;-66
2021/07/30 08:34:55;;;;;;;9.13;4.60;;;22.70;91.80;;;;;;5084537;28;20040;-66
2021/07/30 08:37:20;;;;;;;8.68;5.13;;;22.50;92.60;;;;;;5070865;28;20037;-67
2021/07/30 08:39:46;;;;;;;9.40;4.30;;;22.60;92.90;;;;;;5088372;28;20098;-67
2021/07/30 08:42:14;;;;;;;8.57;4.70;;;22.50;93.10;;;;;;5089209;28;20043;-66
2021/07/30 08:44:39;;;;;;;8.68;5.03;;;22.50;92.70;;;;;;5072796;28;20376;-66
2021/07/30 08:47:06;;;;;;;8.73;4.43;;;22.40;93.20;;;;;;5094902;28;20040;-66
2021/07/30 08:49:34;;;;;;;7.93;4.60;;;22.20;93.20;;;;;;5088445;28;20133;-67
2021/07/30 08:52:10;;;;;;;9.32;4.50;;;22.30;92.60;;;;;;5090658;28;20093;-66
2021/07/30 08:54:37;;;;;;;9.55;4.80;;;22.30;92.40;;;;;;5089624;28;20474;-66
2021/07/30 08:57:07;;;;;;;8.73;5.10;;;22.20;92.50;;;;;;5087940;28;20047;-67
2021/07/30 08:59:33;;;;;;;9.88;4.68;;;22.10;92.90;;;;;;5097318;28;20032;-67
2021/07/30 09:01:58;;;;;;;9.55;4.63;;;22.10;93.50;;;;;;5172467;22;20042;-67
2021/07/30 09:04:25;;;;;;;8.48;4.80;;;22.10;93.90;;;;;;5156658;27;20479;-67
2021/07/30 09:06:54;;;;;;;7.85;4.72;;;22.20;92.80;;;;;;5150451;27;20035;-67
2021/07/30 09:09:19;;;;;;;6.85;4.43;;;22.40;92.60;;;;;;5148984;27;20038;-67
2021/07/30 09:11:45;;;;;;;8.32;4.50;;;22.60;92.80;;;;;;5149809;27;20061;-67
2021/07/30 09:14:11;;;;;;;12.13;4.80;;;22.60;92.50;;;;;;5155782;27;20043;-67
2021/07/30 09:16:51;;;;;;;8.98;4.47;;;22.80;92.80;;;;;;5156045;27;20043;-67
2021/07/30 09:19:18;;;;;;;7.90;4.53;;;22.70;91.70;;;;;;5154982;27;20042;-67
2021/07/30 09:21:43;;;;;;;11.25;4.90;;;22.80;92.50;;;;;;5156472;27;20027;-65
2021/07/30 09:24:12;;;;;;;8.27;4.78;;;22.60;92.00;;;;;;5151458;27;20066;-67
2021/07/30 09:26:54;;;;;;;7.85;4.00;;;22.70;92.40;;;;;;5156257;27;20037;-67
2021/07/30 09:29:25;;;;;;;8.10;3.95;;;22.90;91.40;;;;;;5156070;27;20387;-67
2021/07/30 09:32:10;;;;;;;9.23;4.55;;;23.00;91.50;;;;;;5156089;27;20415;-67
2021/07/30 09:34:51;;;;;;;9.18;4.70;;;23.10;92.20;;;;;;5155944;27;20042;-67
2021/07/30 09:37:24;;;;;;;7.38;3.97;;;23.20;92.00;;;;;;5156159;27;20078;-67
2021/07/30 09:39:53;;;;;;;6.40;3.65;;;23.20;91.90;;;;;;5156144;27;20599;-67
2021/07/30 09:42:21;;;;;;;10.98;4.22;;;23.30;90.90;;;;;;5154995;27;20407;-67
2021/07/30 09:44:58;;;;;;;9.25;4.47;;;23.20;91.30;;;;;;5156112;27;20057;-67
2021/07/30 09:47:29;;;;;;;8.05;4.30;;;23.20;90.00;;;;;;5155849;27;20119;-67
2021/07/30 09:50:04;;;;;;;11.45;4.22;;;23.10;90.20;;;;;;5156049;27;20057;-67
2021/07/30 09:52:39;;;;;;;9.60;4.63;;;23.10;90.70;;;;;;5154042;27;20171;-67
2021/07/30 09:55:10;;;;;;;8.93;4.28;;;23.10;91.00;;;;;;5155001;27;20031;-67
2021/07/30 09:57:37;;;;;;;9.60;4.50;;;23.10;90.50;;;;;;5154359;27;20043;-68
2021/07/30 10:00:04;;;;;;;8.13;4.60;;;23.10;91.40;;;;;;5153405;27;20303;-70
2021/07/30 10:02:32;;;;;;;5.47;3.67;;;23.00;92.30;;;;;;5155271;27;20054;-65
2021/07/30 10:04:59;;;;;;;6.32;4.50;;;23.00;91.80;;;;;;5154949;27;20053;-65
2021/07/30 10:07:27;;;;;;;5.75;4.22;;;23.10;91.10;;;;;;5154915;27;20483;-65
2021/07/30 10:10:42;;;;;;;7.70;4.18;;;23.30;91.80;;;;;;5153354;27;20452;-66
2021/07/30 10:12:48;;;;;;;7.97;3.97;;;23.40;90.90;;;;;;5130002;27;20138;-66
2021/07/30 10:15:14;;;;;;;9.10;4.53;;;23.40;91.20;;;;;;5146858;27;20039;-65
2021/07/30 10:17:48;;;;;;;6.90;3.90;;;23.60;90.00;;;;;;5155244;27;20159;-66
2021/07/30 10:20:19;;;;;;;7.13;4.47;;;23.80;89.60;;;;;;5155180;27;20118;-67
2021/07/30 10:22:53;;;;;;;7.05;4.07;;;23.90;88.90;;;;;;5154180;27;20045;-66
2021/07/30 10:25:23;;;;;;;6.88;3.80;;;24.00;90.20;;;;;;5154886;27;20714;-66
2021/07/30 10:27:51;;;;;;;5.82;3.70;;;23.90;87.50;;;;;;5155041;27;20079;-65
2021/07/30 10:30:17;;;;;;;6.82;4.03;;;24.00;88.50;;;;;;5153258;27;20035;-65
2021/07/30 10:32:50;;;;;;;7.38;3.88;;;24.00;89.60;;;;;;5154410;27;20046;-65
2021/07/30 10:35:26;;;;;;;10.15;4.30;;;24.00;90.30;;;;;;5154992;27;20487;-66
2021/07/30 10:38:08;;;;;;;5.63;3.90;;;24.00;88.50;;;;;;5153322;27;20038;-65
2021/07/30 10:40:33;;;;;;;8.02;4.40;;;23.90;89.10;;;;;;5154349;27;20077;-67
2021/07/30 10:43:07;;;;;;;8.07;3.75;;;23.90;89.50;;;;;;5154064;27;20066;-66
2021/07/30 10:45:44;;;;;;;6.00;3.45;;;23.90;90.70;;;;;;5152959;27;20039;-67
2021/07/30 10:48:22;;;;;;;8.38;3.92;;;24.00;89.50;;;;;;5152928;27;20475;-67
2021/07/30 10:50:55;;;;;;;6.72;3.83;;;24.10;90.30;;;;;;5133217;27;20039;-67
2021/07/30 10:53:36;;;;;;;7.20;4.30;;;24.30;90.30;;;;;;5147157;27;20042;-67
2021/07/30 10:56:05;;;;;;;4.95;3.28;;;24.40;87.30;;;;;;5153998;27;20041;-67
2021/07/30 10:58:40;;;;;;;6.43;4.35;;;24.50;87.90;;;;;;5153881;27;20070;-67
2021/07/30 11:01:06;;;;;;;6.20;3.88;;;24.50;85.60;;;;;;5153648;27;20038;-67
2021/07/30 11:03:50;;;;;;;7.72;4.25;;;24.40;85.60;;;;;;5147621;27;20064;-67
2021/07/30 11:06:30;;;;;;;6.30;3.70;;;24.40;87.10;;;;;;5143861;27;20042;-67
2021/07/30 11:09:02;;;;;;;9.70;3.70;;;24.40;87.90;;;;;;5154369;27;20520;-67
2021/07/30 11:11:46;;;;;;;7.88;4.50;;;24.40;86.70;;;;;;5153010;27;20062;-67
2021/07/30 11:14:31;;;;;;;6.55;3.10;;;24.40;86.70;;;;;;5142557;27;20048;-68
2021/07/30 11:17:00;;;;;;;6.40;3.58;;;24.40;86.20;;;;;;5149254;27;20035;-65
2021/07/30 11:19:35;;;;;;;5.15;3.40;;;24.10;84.80;;;;;;5146852;27;20060;-65
2021/07/30 11:22:03;;;;;;;5.47;3.13;;;24.30;88.80;;;;;;5142685;27;20091;-65
2021/07/30 11:24:29;;;;;;;5.75;3.80;;;24.50;84.60;;;;;;5143299;27;20038;-65
2021/07/30 11:26:55;;;;;;;7.18;3.40;;;24.60;84.80;;;;;;5145623;27;20042;-64
2021/07/30 11:29:22;;;;;;;4.53;3.13;;;24.60;84.70;;;;;;5152839;27;20038;-64
2021/07/30 11:31:52;;;;;;;6.68;3.47;;;24.70;86.00;;;;;;5147266;27;20034;-64
2021/07/30 11:34:18;;;;;;;6.65;3.63;;;24.70;83.30;;;;;;5140667;27;20512;-64
2021/07/30 11:36:50;;;;;;;7.70;4.00;;;24.70;83.70;;;;;;5151522;27;20043;-64
2021/07/30 11:39:17;;;;;;;8.63;3.58;;;24.80;84.50;;;;;;5149168;27;20118;-64
2021/07/30 11:41:50;;;;;;;5.03;3.47;;;25.00;85.90;;;;;;5143129;27;20042;-64
2021/07/30 11:44:17;;;;;;;6.25;3.10;;;25.20;87.00;;;;;;5142581;27;20045;-66
2021/07/30 11:46:52;;;;;;;5.13;3.25;;;25.30;83.30;;;;;;5134313;27;20396;-65
2021/07/30 11:49:26;;;;;;;5.90;3.63;;;25.20;84.70;;;;;;5140513;27;20081;-66
2021/07/30 11:51:52;;;;;;;6.00;3.72;;;25.20;85.00;;;;;;5139993;27;20052;-66
2021/07/30 11:54:24;;;;;;;7.90;3.55;;;25.20;84.10;;;;;;5144509;27;20035;-65
2021/07/30 11:56:49;;;;;;;4.40;3.03;;;25.20;83.90;;;;;;5147833;27;20074;-65
2021/07/30 11:59:15;;;;;;;6.13;3.35;;;25.20;86.20;;;;;;5153400;27;20079;-66
2021/07/30 12:01:41;;;;;;;7.53;3.88;;;25.30;87.10;;;;;;5148792;27;20502;-66
2021/07/30 12:04:11;;;;;;;5.30;3.45;;;25.30;86.50;;;;;;5148743;27;20057;-67
2021/07/30 12:06:49;;;;;;;6.28;3.30;;;25.30;85.70;;;;;;5145534;27;20507;-67
2021/07/30 12:09:16;;;;;;;5.55;3.40;;;25.40;86.80;;;;;;5150422;27;20033;-65
2021/07/30 12:11:48;;;;;;;5.65;3.03;;;25.40;85.50;;;;;;5149362;27;20069;-67
2021/07/30 12:14:14;;;;;;;7.25;2.88;;;25.50;86.10;;;;;;5148617;27;20049;-67
2021/07/30 12:16:44;;;;;;;5.95;3.15;;;25.50;86.00;;;;;;5145531;27;20041;-67
2021/07/30 12:19:10;;;;;;;4.82;2.78;;;25.50;87.10;;;;;;5132367;27;20081;-63
2021/07/30 12:21:36;;;;;;;7.93;3.33;;;25.50;85.80;;;;;;5132901;27;20456;-64
2021/07/30 12:24:06;;;;;;;6.38;3.00;;;25.60;86.10;;;;;;5137369;27;20042;-65
2021/07/30 12:26:33;;;;;;;6.07;3.30;;;25.70;86.20;;;;;;5148598;27;20023;-66
2021/07/30 12:28:58;;;;;;;6.43;2.80;;;25.80;87.10;;;;;;5146330;27;20065;-66
2021/07/30 12:31:24;;;;;;;5.80;2.45;;;25.80;85.30;;;;;;5138735;27;20058;-66
2021/07/30 12:34:10;;;;;;;5.03;2.75;;;25.80;84.90;;;;;;5143201;27;20411;-70
2021/07/30 12:36:35;;;;;;;6.85;2.22;;;25.80;84.00;;;;;;5145769;27;20415;-66
2021/07/30 12:39:06;;;;;;;5.82;2.72;;;25.70;84.00;;;;;;5135358;27;20109;-68
2021/07/30 12:41:33;;;;;;;4.18;2.47;;;25.40;84.20;;;;;;5152162;27;20040;-68
2021/07/30 12:44:28;;;;;;;4.45;2.35;;;25.40;84.20;;;;;;5139665;27;20084;-68